Time;durP1;ratioP1;P1;durP2;ratioP2;P2;SDS_P1;SDS_P2;PMS_P1;PMS_P2;Temp;Humidity;BMP_temperature;BMP_pressure;BME280_temperature;BME280_humidity;BME280_pressure;Samples;Min_cycle;Max_cycle;Signal;HPM_P1;HPM_P2
2023/01/24 00:01:53;;;;;;;12.13;8.40;;;7.00;53.50;;;;;;5042596;28;20045;-49
2023/01/24 00:04:22;;;;;;;9.75;7.35;;;7.00;53.50;;;;;;5040991;28;20505;-45
2023/01/24 00:06:49;;;;;;;11.13;7.30;;;7.10;53.60;;;;;;5037663;28;20076;-49
2023/01/24 00:09:16;;;;;;;10.35;6.97;;;7.00;53.50;;;;;;5040581;28;20053;-47
2023/01/24 00:11:44;;;;;;;10.43;7.18;;;7.00;53.50;;;;;;5040951;28;20053;-47
2023/01/24 00:14:11;;;;;;;10.55;7.65;;;7.00;53.50;;;;;;5041289;28;20080;-49
2023/01/24 00:16:38;;;;;;;11.50;8.23;;;7.00;53.50;;;;;;5042359;28;20055;-48
2023/01/24 00:19:05;;;;;;;12.27;7.78;;;7.10;53.50;;;;;;5041263;28;20053;-46
2023/01/24 00:21:34;;;;;;;12.77;8.45;;;7.00;53.50;;;;;;5040527;28;20060;-48
2023/01/24 00:24:01;;;;;;;13.65;8.25;;;7.00;53.50;;;;;;5038219;28;20476;-46
2023/01/24 00:26:28;;;;;;;12.35;8.38;;;7.00;53.50;;;;;;5040504;28;20049;-49
2023/01/24 00:28:57;;;;;;;12.00;7.95;;;7.00;53.50;;;;;;5042135;28;20053;-49
2023/01/24 00:31:25;;;;;;;12.68;8.10;;;7.00;53.50;;;;;;5041503;28;20505;-47
2023/01/24 00:33:52;;;;;;;10.18;7.50;;;7.00;53.50;;;;;;5038451;28;20041;-48
2023/01/24 00:36:19;;;;;;;12.07;7.93;;;7.10;53.50;;;;;;5041159;28;20505;-49
2023/01/24 00:38:48;;;;;;;12.13;7.22;;;7.00;53.50;;;;;;5039143;28;20057;-50
2023/01/24 00:41:15;;;;;;;11.57;7.00;;;7.00;53.50;;;;;;5041640;28;20436;-50
2023/01/24 00:43:42;;;;;;;10.63;7.18;;;7.00;53.40;;;;;;5040171;28;20397;-49
2023/01/24 00:46:10;;;;;;;9.75;6.72;;;7.00;53.40;;;;;;5041614;28;20060;-49
2023/01/24 00:48:38;;;;;;;9.48;6.30;;;7.00;53.40;;;;;;5041034;28;20056;-48
2023/01/24 00:51:05;;;;;;;10.00;6.55;;;7.00;53.30;;;;;;5040901;28;20057;-48
2023/01/24 00:53:33;;;;;;;8.95;5.97;;;7.00;53.30;;;;;;5038051;28;20049;-49
2023/01/24 00:56:01;;;;;;;7.88;5.40;;;7.00;53.30;;;;;;5039928;28;20060;-47
2023/01/24 00:58:28;;;;;;;8.45;5.57;;;7.00;53.30;;;;;;5040391;28;20056;-48
2023/01/24 01:00:56;;;;;;;10.68;6.43;;;7.00;53.30;;;;;;5042148;28;20049;-51
2023/01/24 01:03:24;;;;;;;9.13;6.30;;;7.00;53.30;;;;;;5040343;28;20052;-51
2023/01/24 01:05:57;;;;;;;9.30;6.25;;;7.00;53.30;;;;;;5039451;28;20056;-48
2023/01/24 01:08:24;;;;;;;8.77;6.03;;;6.90;53.20;;;;;;5037786;28;20065;-47
2023/01/24 01:10:51;;;;;;;7.80;5.45;;;6.90;53.30;;;;;;5039873;28;20056;-51
2023/01/24 01:13:20;;;;;;;9.05;6.18;;;6.90;53.30;;;;;;5039620;28;20500;-50
2023/01/24 01:15:48;;;;;;;7.10;4.90;;;6.90;53.30;;;;;;5040855;28;20163;-48
2023/01/24 01:18:15;;;;;;;8.05;5.32;;;6.90;53.30;;;;;;5040262;28;20063;-50
2023/01/24 01:20:49;;;;;;;8.05;4.93;;;6.90;53.30;;;;;;5041553;28;20064;-50
2023/01/24 01:23:16;;;;;;;7.60;4.78;;;6.90;53.30;;;;;;5035507;28;20076;-45
2023/01/24 01:25:43;;;;;;;8.38;5.35;;;6.90;53.30;;;;;;5038416;28;20064;-48
2023/01/24 01:28:10;;;;;;;8.35;4.70;;;6.90;53.30;;;;;;5039850;28;20481;-51
2023/01/24 01:30:39;;;;;;;7.90;5.93;;;6.90;53.30;;;;;;5040971;28;20052;-46
2023/01/24 01:33:06;;;;;;;8.48;5.53;;;6.90;53.30;;;;;;5039666;28;20519;-48
2023/01/24 01:35:33;;;;;;;7.75;5.68;;;6.90;53.30;;;;;;5041194;28;20119;-48
2023/01/24 01:38:00;;;;;;;9.27;6.40;;;6.90;53.80;;;;;;5035875;28;20057;-46
2023/01/24 01:40:28;;;;;;;8.65;6.13;;;6.90;53.30;;;;;;5038054;28;20059;-48
2023/01/24 01:42:56;;;;;;;8.80;6.13;;;6.90;53.30;;;;;;5038267;28;20467;-46
2023/01/24 01:45:42;;;;;;;9.15;6.20;;;6.90;53.30;;;;;;5039618;28;20045;-48
2023/01/24 01:48:24;;;;;;;9.07;5.85;;;6.90;53.30;;;;;;5039523;28;20061;-48
2023/01/24 01:50:57;;;;;;;10.48;6.40;;;6.90;53.30;;;;;;5040599;28;20072;-51
2023/01/24 01:53:30;;;;;;;7.10;5.23;;;6.90;53.30;;;;;;5037144;28;20088;-50
2023/01/24 01:56:04;;;;;;;8.63;5.67;;;6.90;53.30;;;;;;5035483;28;20057;-50
2023/01/24 01:58:32;;;;;;;8.60;5.50;;;6.90;53.30;;;;;;5037596;28;20068;-49
2023/01/24 02:01:01;;;;;;;7.97;4.90;;;6.90;53.20;;;;;;5040699;28;20851;-49
2023/01/24 02:03:39;;;;;;;8.70;4.85;;;6.90;53.10;;;;;;5039490;28;20171;-48
2023/01/24 02:06:11;;;;;;;7.05;5.15;;;6.90;53.10;;;;;;5037729;28;20056;-49
2023/01/24 02:08:40;;;;;;;6.55;4.45;;;6.90;53.10;;;;;;5037791;28;20067;-47
2023/01/24 02:16:02;;;;;;;6.93;4.88;;;6.90;53.00;;;;;;5038418;28;20493;-52
2023/01/24 02:16:42;;;;;;;8.68;5.10;;;6.90;53.00;;;;;;5038682;28;20064;-51
2023/01/24 02:19:17;;;;;;;7.38;4.80;;;6.90;53.00;;;;;;5038800;28;20060;-49
2023/01/24 02:21:47;;;;;;;6.80;5.07;;;6.90;53.00;;;;;;5038420;28;20056;-52
2023/01/24 02:24:22;;;;;;;8.20;5.72;;;6.90;53.10;;;;;;5033958;28;20057;-50
2023/01/24 02:26:50;;;;;;;8.30;5.00;;;6.80;53.00;;;;;;5039018;28;20049;-49
2023/01/24 02:29:18;;;;;;;7.68;5.15;;;6.80;53.10;;;;;;5040303;28;20583;-48
2023/01/24 02:31:56;;;;;;;7.25;5.00;;;6.80;53.00;;;;;;5039687;28;20053;-46
2023/01/24 02:34:24;;;;;;;7.95;5.47;;;6.80;53.00;;;;;;5038664;28;20061;-47
2023/01/24 02:36:55;;;;;;;7.82;5.07;;;6.90;53.10;;;;;;5037497;28;20052;-46
2023/01/24 02:39:27;;;;;;;7.03;4.72;;;6.80;53.00;;;;;;5035938;28;20064;-48
2023/01/24 02:42:00;;;;;;;8.02;5.15;;;6.80;53.10;;;;;;5039230;28;20064;-49
2023/01/24 02:44:33;;;;;;;10.00;5.70;;;6.80;53.00;;;;;;5039028;28;20372;-51
2023/01/24 02:47:00;;;;;;;8.43;5.40;;;6.80;53.10;;;;;;5037976;28;20060;-51
2023/01/24 02:49:28;;;;;;;7.25;5.10;;;6.80;53.10;;;;;;5039720;28;20095;-48
2023/01/24 02:54:42;;;;;;;7.50;5.45;;;6.80;53.10;;;;;;5011278;28;20052;-47
2023/01/24 02:59:55;;;;;;;8.02;5.40;;;6.80;53.10;;;;;;5042735;28;20401;-51
2023/01/24 03:02:22;;;;;;;8.90;5.72;;;6.90;53.60;;;;;;5041783;28;20065;-48
2023/01/24 03:04:49;;;;;;;8.35;5.40;;;6.80;53.10;;;;;;5041515;28;20045;-49
2023/01/24 03:07:17;;;;;;;7.68;5.25;;;6.80;53.10;;;;;;5043779;28;20061;-48
2023/01/24 03:09:47;;;;;;;6.63;4.93;;;6.80;53.00;;;;;;5040396;28;20061;-48
2023/01/24 03:34:31;;;;;;;7.80;4.40;;;6.70;52.90;;;;;;5048534;28;20068;-49
2023/01/24 03:36:59;;;;;;;6.13;4.35;;;6.70;52.90;;;;;;5042257;28;20057;-49
2023/01/24 03:42:19;;;;;;;7.43;5.22;;;6.70;52.80;;;;;;5019443;28;20080;-45
2023/01/24 03:44:48;;;;;;;7.15;4.38;;;6.70;52.90;;;;;;5043187;28;20056;-47
2023/01/24 03:47:15;;;;;;;7.00;4.78;;;6.70;52.90;;;;;;5041841;28;20052;-47
2023/01/24 03:52:28;;;;;;;6.47;4.57;;;6.70;52.90;;;;;;5048952;28;20377;-48
2023/01/24 03:54:55;;;;;;;7.38;4.60;;;6.70;53.00;;;;;;5040256;28;20509;-46
2023/01/24 03:57:23;;;;;;;8.45;5.13;;;6.70;53.00;;;;;;5041376;28;20060;-49
2023/01/24 03:59:52;;;;;;;7.05;4.95;;;6.70;53.00;;;;;;5042416;28;20421;-51
2023/01/24 04:02:19;;;;;;;6.68;4.57;;;6.70;53.00;;;;;;5040286;28;20061;-47
2023/01/24 04:07:32;;;;;;;5.75;3.90;;;6.70;53.00;;;;;;5047658;28;20390;-46
2023/01/24 04:09:59;;;;;;;6.22;3.88;;;6.70;53.00;;;;;;5038885;28;20409;-47
2023/01/24 04:12:27;;;;;;;6.00;4.28;;;6.70;52.90;;;;;;5043299;28;20063;-45
2023/01/24 04:14:55;;;;;;;5.63;4.28;;;6.70;52.90;;;;;;5042684;28;20068;-46
2023/01/24 04:17:23;;;;;;;6.22;4.07;;;6.70;52.90;;;;;;5040000;28;20065;-47
2023/01/24 04:19:50;;;;;;;6.00;4.20;;;6.70;52.90;;;;;;5040486;28;20052;-48
2023/01/24 04:22:18;;;;;;;6.47;4.07;;;6.70;52.90;;;;;;5041018;28;20060;-44
2023/01/24 04:24:45;;;;;;;7.10;3.90;;;6.70;52.90;;;;;;5038963;28;20061;-49
2023/01/24 04:27:13;;;;;;;7.93;4.45;;;6.70;52.90;;;;;;5042547;28;20501;-48
2023/01/24 04:29:40;;;;;;;5.90;4.05;;;6.70;52.90;;;;;;5042677;28;20056;-45
2023/01/24 04:32:09;;;;;;;5.82;3.42;;;6.70;52.90;;;;;;5041356;28;20079;-47
2023/01/24 04:34:36;;;;;;;4.53;3.30;;;6.70;52.90;;;;;;5040472;28;20381;-48
2023/01/24 04:37:03;;;;;;;6.30;4.22;;;6.70;52.80;;;;;;5041822;28;20052;-45
2023/01/24 04:39:31;;;;;;;5.20;3.78;;;6.70;52.90;;;;;;5036698;28;20048;-45
2023/01/24 04:41:58;;;;;;;5.55;4.00;;;6.70;52.90;;;;;;5040231;28;20063;-48
2023/01/24 04:44:25;;;;;;;5.65;3.70;;;6.70;52.90;;;;;;5041816;28;20176;-47
2023/01/24 04:46:52;;;;;;;4.22;3.30;;;6.70;52.90;;;;;;5042364;28;20425;-45
2023/01/24 04:49:21;;;;;;;6.50;3.97;;;6.70;52.90;;;;;;5040377;28;20053;-48
2023/01/24 04:51:48;;;;;;;51.88;19.75;;;6.70;52.90;;;;;;5038946;28;20074;-47
2023/01/24 04:54:16;;;;;;;29.58;13.50;;;6.70;52.90;;;;;;5038683;28;20135;-46
2023/01/24 04:56:43;;;;;;;11.30;6.15;;;6.70;52.90;;;;;;5040480;28;20041;-47
2023/01/24 04:59:12;;;;;;;7.88;4.45;;;6.60;52.90;;;;;;5038082;28;20064;-46
2023/01/24 05:01:39;;;;;;;5.00;3.35;;;6.60;52.90;;;;;;5040681;28;20049;-45
2023/01/24 05:04:07;;;;;;;5.75;3.72;;;6.60;52.90;;;;;;5041031;28;20375;-45
2023/01/24 05:06:36;;;;;;;4.93;3.53;;;6.60;52.90;;;;;;5040818;28;20045;-45
2023/01/24 05:09:03;;;;;;;5.20;3.53;;;6.60;52.80;;;;;;5041208;28;20068;-46
2023/01/24 05:11:31;;;;;;;6.15;3.90;;;6.60;52.80;;;;;;5039005;28;20507;-47
2023/01/24 05:13:58;;;;;;;4.65;3.42;;;6.60;52.80;;;;;;5041340;28;20058;-47
2023/01/24 05:16:25;;;;;;;4.50;3.60;;;6.60;52.90;;;;;;5037471;28;20049;-48
2023/01/24 05:18:52;;;;;;;5.72;3.45;;;6.60;52.90;;;;;;5038486;28;20053;-44
2023/01/24 05:21:20;;;;;;;5.28;3.80;;;6.60;52.90;;;;;;5040256;28;20053;-46
2023/01/24 05:23:51;;;;;;;5.25;3.67;;;6.60;52.90;;;;;;5038796;28;20413;-45
2023/01/24 05:26:19;;;;;;;65.80;24.65;;;6.60;52.80;;;;;;5040631;28;20064;-46
2023/01/24 05:28:46;;;;;;;72.93;30.23;;;6.60;52.90;;;;;;5040521;28;20516;-46
2023/01/24 05:31:14;;;;;;;38.50;16.05;;;6.60;52.90;;;;;;5039501;28;20060;-50
2023/01/24 05:33:41;;;;;;;14.60;7.45;;;6.60;52.90;;;;;;5038023;28;20053;-45
2023/01/24 05:36:11;;;;;;;7.75;4.78;;;6.60;52.90;;;;;;5041282;28;20990;-45
2023/01/24 05:38:38;;;;;;;7.13;4.28;;;6.60;52.90;;;;;;5040220;28;20060;-44
2023/01/24 05:41:09;;;;;;;5.80;3.88;;;6.60;52.90;;;;;;5039306;28;20045;-44
2023/01/24 05:43:37;;;;;;;5.95;3.97;;;6.60;52.90;;;;;;5038978;28;20063;-48
2023/01/24 05:46:06;;;;;;;5.53;4.20;;;6.60;52.90;;;;;;5040993;28;20048;-47
2023/01/24 05:48:33;;;;;;;5.18;3.80;;;6.60;52.80;;;;;;5039440;28;20060;-45
2023/01/24 05:51:02;;;;;;;7.03;4.50;;;6.60;53.30;;;;;;5039438;28;20060;-47
2023/01/24 05:53:30;;;;;;;5.22;3.63;;;6.60;52.80;;;;;;5039763;28;20068;-46
2023/01/24 05:55:58;;;;;;;5.18;3.90;;;6.60;52.80;;;;;;5039353;28;20053;-47
2023/01/24 05:58:27;;;;;;;5.22;3.75;;;6.60;52.80;;;;;;5038440;28;20520;-47
2023/01/24 06:00:54;;;;;;;5.03;3.70;;;6.60;53.20;;;;;;5039690;28;20060;-46
2023/01/24 06:03:22;;;;;;;5.72;3.83;;;6.60;52.80;;;;;;5039036;28;20049;-48
2023/01/24 06:05:52;;;;;;;7.22;4.32;;;6.60;52.80;;;;;;5038986;28;20051;-49
2023/01/24 06:08:20;;;;;;;4.85;3.88;;;6.60;52.80;;;;;;5034942;28;20398;-45
2023/01/24 06:10:47;;;;;;;6.05;4.10;;;6.60;52.80;;;;;;5035088;28;20294;-46
2023/01/24 06:13:14;;;;;;;12.30;6.35;;;6.60;52.80;;;;;;5037889;28;20048;-46
2023/01/24 06:15:43;;;;;;;33.90;13.82;;;6.60;52.80;;;;;;5037694;28;20432;-47
2023/01/24 06:18:14;;;;;;;11.60;6.55;;;6.60;52.80;;;;;;5039656;28;20064;-44
2023/01/24 06:20:42;;;;;;;6.68;4.55;;;6.60;52.80;;;;;;5038629;28;20056;-43
2023/01/24 06:23:23;;;;;;;5.60;3.90;;;6.60;52.80;;;;;;5036823;28;20053;-47
2023/01/24 06:25:51;;;;;;;6.50;3.78;;;6.60;52.80;;;;;;5036171;28;20053;-45
2023/01/24 06:28:19;;;;;;;5.68;4.18;;;6.60;52.80;;;;;;5040052;28;20041;-45
2023/01/24 06:30:58;;;;;;;7.13;4.30;;;6.60;52.80;;;;;;5040154;28;20279;-48
2023/01/24 06:33:36;;;;;;;5.80;4.25;;;6.50;52.80;;;;;;5036297;28;20052;-45
2023/01/24 06:36:20;;;;;;;5.85;4.38;;;6.60;52.80;;;;;;5044056;28;20064;-46
2023/01/24 06:38:49;;;;;;;5.95;4.38;;;6.50;52.80;;;;;;5044012;28;20064;-44
2023/01/24 06:41:18;;;;;;;6.50;4.65;;;6.60;52.90;;;;;;5043582;28;20053;-45
2023/01/24 06:43:47;;;;;;;6.65;4.40;;;6.50;52.80;;;;;;5043927;28;20064;-47
2023/01/24 06:46:17;;;;;;;7.15;4.30;;;6.50;52.90;;;;;;5043461;28;20056;-45
2023/01/24 06:48:45;;;;;;;6.18;4.38;;;6.50;52.80;;;;;;5042513;28;20052;-47
2023/01/24 06:51:14;;;;;;;7.90;5.38;;;6.60;52.90;;;;;;5045267;28;20049;-49
2023/01/24 06:53:43;;;;;;;6.35;4.57;;;6.50;52.90;;;;;;5044789;28;20568;-46
2023/01/24 06:56:11;;;;;;;6.82;4.25;;;6.60;52.90;;;;;;5044712;28;20412;-46
2023/01/24 06:58:39;;;;;;;6.20;4.40;;;6.60;53.00;;;;;;5044821;28;20049;-43
2023/01/24 07:01:06;;;;;;;6.25;4.22;;;6.60;53.00;;;;;;5045236;28;20060;-45
2023/01/24 07:03:35;;;;;;;7.15;4.40;;;6.60;52.90;;;;;;5044476;28;20427;-48
2023/01/24 07:06:02;;;;;;;5.22;3.50;;;6.60;52.90;;;;;;5044189;28;20056;-43
2023/01/24 07:08:29;;;;;;;5.75;4.15;;;6.60;52.90;;;;;;5043937;28;20439;-48
2023/01/24 07:10:58;;;;;;;5.57;4.07;;;6.60;52.90;;;;;;5045115;28;20057;-45
2023/01/24 07:13:25;;;;;;;5.20;3.72;;;6.60;52.90;;;;;;5045223;28;20052;-48
2023/01/24 07:15:52;;;;;;;5.75;4.13;;;6.60;52.90;;;;;;5045496;28;20059;-47
2023/01/24 07:18:20;;;;;;;5.40;3.88;;;6.60;52.90;;;;;;5036547;28;20056;-49
2023/01/24 07:20:50;;;;;;;6.15;4.15;;;6.60;52.90;;;;;;5032340;28;20927;-46
2023/01/24 07:23:23;;;;;;;8.48;5.22;;;6.60;53.00;;;;;;5037308;28;20052;-46
2023/01/24 07:25:51;;;;;;;6.60;4.55;;;6.60;53.00;;;;;;5040078;28;20068;-46
2023/01/24 07:28:19;;;;;;;6.53;4.18;;;6.60;53.00;;;;;;5043618;28;20052;-47
2023/01/24 07:30:46;;;;;;;6.95;4.13;;;6.60;52.90;;;;;;5044047;28;20045;-46
2023/01/24 07:33:14;;;;;;;7.60;4.82;;;6.60;52.90;;;;;;5042506;28;20064;-46
2023/01/24 07:35:42;;;;;;;6.25;4.25;;;6.60;52.90;;;;;;5037231;28;20136;-49
2023/01/24 07:38:12;;;;;;;6.00;4.30;;;6.60;53.00;;;;;;5041001;28;20053;-47
2023/01/24 07:40:41;;;;;;;7.45;4.45;;;6.60;53.00;;;;;;5041720;28;20053;-48
2023/01/24 07:43:08;;;;;;;5.95;4.35;;;6.60;53.00;;;;;;5044932;28;20515;-47
2023/01/24 07:45:37;;;;;;;8.32;4.75;;;6.60;53.00;;;;;;5043471;28;20049;-45
2023/01/24 07:48:06;;;;;;;7.13;4.40;;;6.60;52.90;;;;;;5044800;28;20045;-47
2023/01/24 07:50:35;;;;;;;6.95;4.93;;;6.60;52.90;;;;;;5040110;28;20048;-48
2023/01/24 07:53:02;;;;;;;7.45;4.78;;;6.60;53.00;;;;;;5043004;28;20052;-46
2023/01/24 07:55:31;;;;;;;7.50;4.63;;;6.60;53.00;;;;;;5043281;28;20095;-51
2023/01/24 07:58:00;;;;;;;8.00;5.10;;;6.60;53.00;;;;;;5045007;28;20064;-44
2023/01/24 08:00:28;;;;;;;6.72;5.00;;;6.70;53.00;;;;;;5040431;28;20056;-48
2023/01/24 08:02:55;;;;;;;9.68;6.05;;;6.70;53.00;;;;;;5041093;28;20060;-44
2023/01/24 08:05:22;;;;;;;7.72;5.32;;;6.70;53.00;;;;;;5040924;28;20079;-47
2023/01/24 08:07:49;;;;;;;7.00;4.90;;;6.70;53.00;;;;;;5043527;28;20512;-48
2023/01/24 08:10:17;;;;;;;6.97;4.53;;;6.70;53.10;;;;;;5042452;28;20053;-45
2023/01/24 08:12:45;;;;;;;8.05;4.70;;;6.70;53.10;;;;;;5044290;28;20123;-44
2023/01/24 08:15:13;;;;;;;8.57;5.13;;;6.70;53.10;;;;;;5043625;28;20056;-48
2023/01/24 08:17:40;;;;;;;6.82;5.22;;;6.70;53.00;;;;;;5038222;28;20053;-45
2023/01/24 08:20:08;;;;;;;6.15;3.90;;;6.70;52.90;;;;;;5039645;28;20052;-46
2023/01/24 08:22:38;;;;;;;6.95;4.35;;;6.70;52.90;;;;;;5041637;28;20053;-46
2023/01/24 08:25:06;;;;;;;6.35;4.30;;;6.70;52.90;;;;;;5038755;28;21336;-47
2023/01/24 08:27:33;;;;;;;6.53;4.70;;;6.70;52.80;;;;;;5038203;28;20056;-45
2023/01/24 08:30:02;;;;;;;5.75;4.03;;;6.70;52.80;;;;;;5039438;28;20057;-45
2023/01/24 08:32:31;;;;;;;6.55;4.15;;;6.70;52.80;;;;;;5039834;28;20167;-44
2023/01/24 08:34:58;;;;;;;6.53;4.25;;;6.70;52.70;;;;;;5042875;28;20055;-44
2023/01/24 08:37:26;;;;;;;7.95;4.32;;;6.70;52.70;;;;;;5039845;28;20053;-44
2023/01/24 08:39:56;;;;;;;6.47;4.47;;;6.70;52.80;;;;;;5039990;28;20059;-46
2023/01/24 08:42:23;;;;;;;6.05;4.60;;;6.70;52.90;;;;;;5043646;28;20485;-45
2023/01/24 08:44:51;;;;;;;6.72;4.78;;;6.70;52.90;;;;;;5043575;28;20060;-46
2023/01/24 08:47:19;;;;;;;7.78;5.00;;;6.70;52.90;;;;;;5042039;28;20393;-45
2023/01/24 08:49:46;;;;;;;6.70;4.40;;;6.70;52.90;;;;;;5043057;28;20044;-47
2023/01/24 08:52:14;;;;;;;7.88;4.72;;;6.70;52.90;;;;;;5043417;28;20060;-45
2023/01/24 08:54:41;;;;;;;7.28;4.97;;;6.70;52.90;;;;;;5040070;28;20059;-47
2023/01/24 08:57:08;;;;;;;5.97;4.50;;;6.70;52.90;;;;;;5043119;28;20049;-47
2023/01/24 08:59:35;;;;;;;7.03;4.85;;;6.80;52.90;;;;;;5040841;28;20061;-44
2023/01/24 09:02:02;;;;;;;6.47;4.43;;;6.70;52.90;;;;;;5041767;28;20064;-47
2023/01/24 09:04:31;;;;;;;7.35;5.22;;;6.70;52.90;;;;;;5039465;28;20835;-46
2023/01/24 09:06:58;;;;;;;6.57;4.63;;;6.70;53.00;;;;;;5039379;28;20063;-47
2023/01/24 09:09:26;;;;;;;8.02;4.00;;;6.80;53.10;;;;;;5041685;28;20060;-46
2023/01/24 09:11:53;;;;;;;7.30;4.68;;;6.80;53.10;;;;;;5042566;28;20493;-47
2023/01/24 09:14:20;;;;;;;6.95;4.78;;;6.80;53.10;;;;;;5041717;28;20497;-44
2023/01/24 09:16:47;;;;;;;8.07;4.70;;;6.80;53.10;;;;;;5041443;28;20056;-43
2023/01/24 09:19:15;;;;;;;7.68;4.95;;;6.80;53.10;;;;;;5042902;28;20064;-47
2023/01/24 09:21:44;;;;;;;7.22;5.05;;;6.80;53.10;;;;;;5042894;28;20484;-46
2023/01/24 09:24:11;;;;;;;7.03;4.53;;;6.80;53.00;;;;;;5040848;28;20052;-48
2023/01/24 09:26:39;;;;;;;6.57;4.50;;;6.80;53.00;;;;;;5043494;28;20049;-46
2023/01/24 09:29:06;;;;;;;7.50;4.30;;;6.80;53.00;;;;;;5042197;28;20064;-46
2023/01/24 09:31:33;;;;;;;7.93;5.78;;;6.90;53.00;;;;;;5042816;28;20061;-46
2023/01/24 09:34:00;;;;;;;6.25;4.47;;;6.90;53.00;;;;;;5042542;28;20053;-48
2023/01/24 09:36:29;;;;;;;6.60;4.70;;;6.90;52.90;;;;;;5042405;28;20424;-48
2023/01/24 09:38:58;;;;;;;8.60;4.85;;;6.90;53.00;;;;;;5041919;28;20045;-47
2023/01/24 09:41:36;;;;;;;7.07;5.13;;;6.90;52.90;;;;;;5040978;28;20079;-48
2023/01/24 09:44:11;;;;;;;7.20;5.07;;;6.90;52.90;;;;;;5035990;28;20400;-43
2023/01/24 09:46:44;;;;;;;7.38;4.97;;;6.90;52.80;;;;;;5037376;28;20045;-43
2023/01/24 09:49:18;;;;;;;8.13;5.60;;;6.90;52.80;;;;;;5042650;28;20056;-47
2023/01/24 09:51:49;;;;;;;7.63;5.25;;;6.90;52.70;;;;;;5040223;28;20473;-46
2023/01/24 09:54:35;;;;;;;6.40;4.47;;;6.90;52.80;;;;;;5031946;28;20412;-45
2023/01/24 09:57:11;;;;;;;7.40;5.45;;;6.90;52.70;;;;;;5042702;28;20056;-46
2023/01/24 09:59:42;;;;;;;6.40;4.65;;;6.90;52.80;;;;;;5040215;28;20049;-47
2023/01/24 10:02:17;;;;;;;7.13;5.13;;;6.90;52.80;;;;;;5038716;28;20056;-46
2023/01/24 10:04:46;;;;;;;7.30;5.30;;;6.90;52.80;;;;;;5035389;28;20063;-46
2023/01/24 10:07:45;;;;;;;9.00;5.32;;;6.90;52.80;;;;;;5039795;28;20049;-46
2023/01/24 10:10:29;;;;;;;6.30;4.88;;;6.90;52.90;;;;;;5043317;28;20056;-47
2023/01/24 10:13:03;;;;;;;;;;;6.90;52.90;;;;;;5046790;28;20060;-46
2023/01/24 10:15:47;;;;;;;8.10;5.35;;;6.90;53.00;;;;;;5043464;28;19936;-43
2023/01/24 10:18:50;;;;;;;10.00;5.82;;;7.00;53.00;;;;;;5046164;28;20385;-43
2023/01/24 10:21:35;;;;;;;7.45;5.30;;;7.00;53.00;;;;;;5044816;28;20060;-47
2023/01/24 10:24:07;;;;;;;8.82;5.88;;;7.00;53.00;;;;;;5039481;28;20409;-47
2023/01/24 10:26:42;;;;;;;7.85;5.47;;;7.00;53.00;;;;;;5039437;28;20049;-43
2023/01/24 10:29:15;;;;;;;7.38;5.30;;;7.00;53.00;;;;;;5041924;28;20068;-47
2023/01/24 10:31:46;;;;;;;7.78;5.35;;;7.00;53.00;;;;;;5044989;28;20057;-47
2023/01/24 10:34:18;;;;;;;8.90;5.95;;;7.00;52.90;;;;;;5045415;28;20060;-47
2023/01/24 10:36:51;;;;;;;9.30;6.00;;;7.00;52.90;;;;;;5045128;28;20061;-44
2023/01/24 10:39:18;;;;;;;7.40;5.65;;;7.00;52.90;;;;;;5043616;28;20049;-45
2023/01/24 10:41:47;;;;;;;9.23;6.20;;;7.00;53.00;;;;;;5040667;28;20056;-46
2023/01/24 10:44:19;;;;;;;8.63;5.80;;;7.00;53.00;;;;;;5042579;28;20068;-47
2023/01/24 10:47:08;;;;;;;9.13;5.47;;;7.10;53.10;;;;;;5045107;28;20079;-43
2023/01/24 10:49:38;;;;;;;9.00;5.93;;;7.10;53.10;;;;;;5042018;28;20052;-47
2023/01/24 10:52:14;;;;;;;11.05;6.88;;;7.10;53.10;;;;;;5043075;28;20053;-45
2023/01/24 10:54:53;;;;;;;9.02;6.03;;;7.10;53.00;;;;;;5043505;28;20067;-43
2023/01/24 10:57:34;;;;;;;7.75;5.60;;;7.10;53.00;;;;;;5045380;28;20052;-45
2023/01/24 11:00:17;;;;;;;8.23;5.40;;;7.10;52.90;;;;;;5040121;28;20409;-48
2023/01/24 11:02:51;;;;;;;7.78;5.65;;;7.10;52.80;;;;;;5045515;28;20135;-47
2023/01/24 11:05:21;;;;;;;8.15;5.68;;;7.10;52.80;;;;;;5044975;28;20056;-46
2023/01/24 11:07:51;;;;;;;7.35;5.60;;;7.10;52.70;;;;;;5043494;28;20084;-44
2023/01/24 11:10:25;;;;;;;8.60;5.72;;;7.10;52.70;;;;;;5043186;28;20053;-46
2023/01/24 11:12:56;;;;;;;8.10;5.75;;;7.10;53.20;;;;;;5042448;28;20060;-47
2023/01/24 11:15:27;;;;;;;8.38;5.90;;;7.10;52.70;;;;;;5043015;28;20045;-44
2023/01/24 11:17:57;;;;;;;8.60;5.68;;;7.10;52.70;;;;;;5044783;28;20057;-49
2023/01/24 11:20:30;;;;;;;8.40;5.65;;;7.10;52.70;;;;;;5044065;28;20052;-46
2023/01/24 11:23:13;;;;;;;10.57;5.53;;;7.10;52.70;;;;;;5042592;28;20053;-43
2023/01/24 11:25:53;;;;;;;8.55;5.10;;;7.10;53.10;;;;;;5038221;28;20413;-44
2023/01/24 11:28:26;;;;;;;8.38;5.45;;;7.10;52.70;;;;;;5040331;28;20057;-44
2023/01/24 11:30:54;;;;;;;7.70;5.55;;;7.10;52.80;;;;;;5038511;28;20049;-44
2023/01/24 11:33:45;;;;;;;8.63;5.35;;;7.10;52.80;;;;;;5040144;28;20505;-44
2023/01/24 11:36:24;;;;;;;8.23;5.82;;;7.10;52.80;;;;;;5040961;28;20527;-45
2023/01/24 11:38:55;;;;;;;8.55;5.25;;;7.10;52.80;;;;;;5041357;28;20060;-47
2023/01/24 11:41:30;;;;;;;6.85;5.00;;;7.10;52.80;;;;;;5044167;28;20064;-44
2023/01/24 11:44:28;;;;;;;14.55;9.00;;;7.10;52.80;;;;;;5044455;28;20052;-48
2023/01/24 11:47:01;;;;;;;8.93;6.22;;;7.10;52.80;;;;;;5041680;28;20058;-45
2023/01/24 11:49:49;;;;;;;22.08;12.13;;;7.10;52.80;;;;;;5045227;28;20049;-45
2023/01/24 11:52:34;;;;;;;11.18;7.30;;;7.10;52.70;;;;;;5043463;28;20056;-46
2023/01/24 11:55:11;;;;;;;9.55;6.13;;;7.10;52.70;;;;;;5043188;28;20057;-46
2023/01/24 11:57:47;;;;;;;7.97;5.60;;;7.20;52.80;;;;;;5043021;28;20045;-48
2023/01/24 12:00:29;;;;;;;7.70;5.00;;;7.20;52.70;;;;;;5044622;28;20049;-46
2023/01/24 12:03:32;;;;;;;8.73;5.53;;;7.20;52.70;;;;;;5044669;28;21077;-47
2023/01/24 12:06:10;;;;;;;8.73;5.82;;;7.20;52.60;;;;;;5044665;28;20049;-44
2023/01/24 12:08:59;;;;;;;7.95;5.07;;;7.20;52.60;;;;;;5043789;28;20053;-46
2023/01/24 12:11:30;;;;;;;6.82;4.95;;;7.20;52.60;;;;;;5042937;28;20049;-46
2023/01/24 12:14:20;;;;;;;7.45;5.20;;;7.20;52.50;;;;;;5042868;28;20063;-47
2023/01/24 12:16:59;;;;;;;7.63;5.30;;;7.20;52.50;;;;;;5040767;28;20052;-46
2023/01/24 12:19:40;;;;;;;7.93;5.50;;;7.20;52.40;;;;;;5043228;28;20421;-46
2023/01/24 12:22:14;;;;;;;8.65;4.82;;;7.20;52.40;;;;;;5044084;28;20064;-49
2023/01/24 12:24:47;;;;;;;7.70;5.35;;;7.20;52.40;;;;;;5042297;28;20412;-45
2023/01/24 12:27:18;;;;;;;7.43;4.82;;;7.20;52.30;;;;;;5043394;28;20493;-48
2023/01/24 12:29:55;;;;;;;7.03;4.88;;;7.20;52.30;;;;;;5044195;28;20068;-48
2023/01/24 12:32:28;;;;;;;9.95;5.97;;;7.20;52.30;;;;;;5043101;28;20055;-47
2023/01/24 12:35:02;;;;;;;8.57;4.97;;;7.10;52.30;;;;;;5041882;28;20056;-44
2023/01/24 12:37:36;;;;;;;10.77;5.47;;;7.10;52.40;;;;;;5044458;28;20429;-48
2023/01/24 12:40:16;;;;;;;6.20;4.70;;;7.10;52.40;;;;;;5041941;28;20404;-46
2023/01/24 12:42:55;;;;;;;6.97;5.20;;;7.10;52.40;;;;;;5042178;28;20053;-46
2023/01/24 12:45:27;;;;;;;11.40;6.70;;;7.10;52.40;;;;;;5041366;28;20053;-44
2023/01/24 12:48:00;;;;;;;8.82;5.40;;;7.20;52.50;;;;;;5043338;28;20055;-47
2023/01/24 12:50:38;;;;;;;6.78;4.90;;;7.20;52.50;;;;;;5043651;28;20503;-44
2023/01/24 12:53:13;;;;;;;6.30;4.82;;;7.20;52.50;;;;;;5043651;28;20049;-46
2023/01/24 12:55:47;;;;;;;6.15;4.57;;;7.20;52.50;;;;;;5041497;28;20052;-47
2023/01/24 12:58:18;;;;;;;;;;;7.20;52.60;;;;;;5042582;28;20053;-45
2023/01/24 13:00:58;;;;;;;7.35;5.07;;;7.20;52.50;;;;;;5042934;28;19939;-44
2023/01/24 13:03:51;;;;;;;9.05;6.10;;;7.20;52.40;;;;;;5043290;28;20511;-45
2023/01/24 13:06:26;;;;;;;9.90;6.30;;;7.20;52.30;;;;;;5042815;28;20053;-46
2023/01/24 13:09:04;;;;;;;14.68;10.35;;;7.20;52.30;;;;;;5041163;28;20061;-46
2023/01/24 13:11:35;;;;;;;10.55;7.70;;;7.20;52.30;;;;;;5042380;28;20057;-46
2023/01/24 13:14:08;;;;;;;9.30;6.78;;;7.20;52.40;;;;;;5041691;28;20060;-48
2023/01/24 13:17:02;;;;;;;9.45;6.35;;;7.20;52.30;;;;;;5043605;28;20067;-46
2023/01/24 13:19:42;;;;;;;6.97;5.28;;;7.20;52.40;;;;;;5042972;28;20065;-44
2023/01/24 13:22:23;;;;;;;9.52;6.07;;;7.20;52.40;;;;;;5041241;28;20515;-45
2023/01/24 13:24:59;;;;;;;10.00;5.85;;;7.20;52.30;;;;;;5037593;28;20064;-46
2023/01/24 13:27:37;;;;;;;8.27;6.25;;;7.20;52.30;;;;;;5042489;28;20053;-50
2023/01/24 13:30:23;;;;;;;7.75;5.60;;;7.30;52.30;;;;;;5040658;28;20052;-48
2023/01/24 13:32:53;;;;;;;7.28;5.60;;;7.30;52.30;;;;;;5041597;28;20056;-46
2023/01/24 13:35:24;;;;;;;7.47;5.60;;;7.30;52.30;;;;;;5042684;28;20088;-48
2023/01/24 13:37:53;;;;;;;8.38;5.85;;;7.30;52.30;;;;;;5043534;28;20053;-45
2023/01/24 13:40:26;;;;;;;9.15;6.43;;;7.30;52.30;;;;;;5041857;28;20065;-46
2023/01/24 13:42:53;;;;;;;10.00;6.20;;;7.30;52.20;;;;;;5038661;28;20515;-44
2023/01/24 13:46:00;;;;;;;8.85;6.30;;;7.30;52.10;;;;;;5042433;28;20420;-49
2023/01/24 13:49:00;;;;;;;8.50;5.72;;;7.30;52.00;;;;;;5042203;28;20057;-44
2023/01/24 13:51:35;;;;;;;9.07;5.57;;;7.20;52.00;;;;;;5040011;28;20493;-46
2023/01/24 13:54:04;;;;;;;7.88;5.80;;;7.30;52.10;;;;;;5038025;28;20049;-46
2023/01/24 13:56:32;;;;;;;9.35;6.22;;;7.20;52.10;;;;;;5039706;28;20072;-45